createdAt,value
2018-12-04T00:01:57.643Z,55.30
2018-12-04T00:04:23.868Z,55.20
2018-12-04T00:06:50.095Z,55.20
2018-12-04T00:09:16.323Z,54.90
2018-12-04T00:11:42.559Z,54.90
2018-12-04T00:14:08.779Z,54.60
2018-12-04T00:16:35.018Z,54.20
2018-12-04T00:19:01.239Z,54.60
2018-12-04T00:21:27.467Z,54.10
2018-12-04T00:23:53.704Z,54.50
2018-12-04T00:26:19.928Z,54.50
2018-12-04T00:28:46.147Z,54.40
2018-12-04T00:31:12.383Z,54.30
2018-12-04T00:33:38.613Z,54.30
2018-12-04T00:36:04.779Z,54.40
2018-12-04T00:38:31.072Z,54.00
2018-12-04T00:40:57.296Z,53.90
2018-12-04T00:43:23.521Z,53.30
2018-12-04T00:45:49.753Z,53.90
2018-12-04T00:48:15.972Z,54.30
2018-12-04T00:50:42.210Z,53.90
2018-12-04T00:53:08.432Z,54.10
2018-12-04T00:55:34.674Z,54.00
2018-12-04T00:58:00.892Z,53.60
2018-12-04T01:00:27.115Z,53.50
2018-12-04T01:02:53.347Z,53.60
2018-12-04T01:05:21.220Z,53.60
2018-12-04T01:07:47.441Z,53.70
2018-12-04T01:10:13.669Z,53.90
2018-12-04T01:12:39.897Z,54.20
2018-12-04T01:15:06.123Z,53.80
2018-12-04T01:17:32.355Z,53.80
2018-12-04T01:19:58.579Z,53.50
2018-12-04T01:22:24.820Z,53.50
2018-12-04T01:24:51.056Z,53.20
2018-12-04T01:27:17.263Z,53.70
2018-12-04T01:29:43.503Z,53.50
2018-12-04T01:32:09.720Z,53.40
2018-12-04T01:34:35.956Z,53.50
2018-12-04T01:37:02.188Z,53.70
2018-12-04T01:39:28.407Z,53.40
2018-12-04T01:41:54.645Z,53.50
2018-12-04T01:44:20.864Z,53.40
2018-12-04T01:46:47.104Z,53.10
2018-12-04T01:49:13.331Z,53.10
2018-12-04T01:51:39.549Z,53.10
2018-12-04T01:54:05.783Z,53.20
2018-12-04T01:56:32.007Z,53.20
2018-12-04T01:58:58.241Z,53.20
2018-12-04T02:01:24.463Z,52.90
2018-12-04T02:03:50.703Z,52.80
2018-12-04T02:06:16.919Z,52.90
2018-12-04T02:08:43.147Z,52.60
2018-12-04T02:11:09.383Z,52.50
2018-12-04T02:13:35.619Z,52.60
2018-12-04T02:16:01.833Z,52.70
2018-12-04T02:18:28.076Z,52.40
2018-12-04T02:20:54.287Z,52.90
2018-12-04T02:23:20.516Z,52.70
2018-12-04T02:25:46.752Z,52.60
2018-12-04T02:28:12.978Z,52.70
2018-12-04T02:30:39.208Z,52.10
2018-12-04T02:33:05.433Z,52.50
2018-12-04T02:35:31.656Z,52.30
2018-12-04T02:37:57.892Z,52.20
2018-12-04T02:40:24.120Z,52.30
2018-12-04T02:42:50.367Z,52.10
2018-12-04T02:45:16.579Z,52.00
2018-12-04T02:47:42.821Z,52.20
2018-12-04T02:50:09.037Z,52.00
2018-12-04T02:52:35.256Z,52.10
2018-12-04T02:55:01.485Z,52.40
2018-12-04T02:57:27.728Z,52.20
2018-12-04T02:59:53.946Z,52.20
2018-12-04T03:02:20.172Z,52.20
2018-12-04T03:04:46.392Z,52.30
2018-12-04T03:07:12.643Z,52.00
2018-12-04T03:09:38.859Z,52.00
2018-12-04T03:12:05.084Z,51.70
2018-12-04T03:14:31.316Z,51.60
2018-12-04T03:16:57.547Z,51.70
2018-12-04T03:19:23.764Z,51.40
2018-12-04T03:21:50.001Z,52.00
2018-12-04T03:24:16.228Z,51.70
2018-12-04T03:26:42.447Z,51.70
2018-12-04T03:29:08.687Z,51.70
2018-12-04T03:31:34.904Z,52.00
2018-12-04T03:34:01.144Z,51.90
2018-12-04T03:36:27.363Z,51.90
2018-12-04T03:38:53.593Z,51.80
2018-12-04T03:41:19.829Z,51.70
2018-12-04T03:43:46.052Z,51.70
2018-12-04T03:46:12.281Z,51.50
2018-12-04T03:48:38.517Z,51.70
2018-12-04T03:51:04.736Z,51.80
2018-12-04T03:53:30.964Z,51.60
2018-12-04T03:55:57.199Z,51.60
2018-12-04T03:58:23.428Z,51.50
2018-12-04T04:00:49.655Z,51.50
2018-12-04T04:03:15.871Z,51.20
2018-12-04T04:05:42.105Z,51.40
2018-12-04T04:08:08.341Z,51.50
2018-12-04T04:10:34.572Z,51.30
2018-12-04T04:13:00.789Z,50.80
2018-12-04T04:15:27.029Z,51.20
2018-12-04T04:17:53.253Z,51.40
2018-12-04T04:20:19.484Z,52.10
2018-12-04T04:22:45.705Z,50.90
2018-12-04T04:25:11.932Z,51.30
2018-12-04T04:27:38.170Z,51.50
2018-12-04T04:30:04.396Z,51.30
2018-12-04T04:32:30.616Z,51.00
2018-12-04T04:34:56.854Z,51.20
2018-12-04T04:37:23.072Z,50.90
2018-12-04T04:39:49.308Z,50.70
2018-12-04T04:42:15.523Z,50.80
2018-12-04T04:44:41.755Z,51.00
2018-12-04T04:47:07.986Z,50.90
2018-12-04T04:49:34.221Z,50.80
2018-12-04T04:52:00.448Z,50.50
2018-12-04T04:54:27.288Z,50.50
2018-12-04T04:56:53.523Z,50.50
2018-12-04T04:59:19.740Z,50.50
2018-12-04T05:01:45.973Z,50.30
2018-12-04T05:04:12.201Z,50.60
2018-12-04T05:06:38.424Z,50.20
2018-12-04T05:09:04.651Z,50.30
2018-12-04T05:11:30.884Z,50.10
2018-12-04T05:13:57.104Z,50.30
2018-12-04T05:16:23.339Z,50.50
2018-12-04T05:18:49.568Z,50.30
2018-12-04T05:21:16.203Z,50.40
2018-12-04T05:23:42.440Z,50.30
2018-12-04T05:26:08.659Z,50.60
2018-12-04T05:28:34.812Z,50.10
2018-12-04T05:31:01.120Z,50.30
2018-12-04T05:33:27.353Z,50.20
2018-12-04T05:35:53.503Z,50.20
2018-12-04T05:38:19.797Z,50.30
2018-12-04T05:40:45.939Z,50.20
2018-12-04T05:43:12.256Z,50.10
2018-12-04T05:45:38.411Z,49.90
2018-12-04T05:48:04.718Z,49.80
2018-12-04T05:50:30.948Z,49.70
2018-12-04T05:52:57.172Z,49.60
2018-12-04T05:55:27.288Z,49.80
2018-12-04T05:57:53.437Z,49.70
2018-12-04T06:00:19.753Z,50.00
2018-12-04T06:02:45.976Z,50.00
2018-12-04T06:05:12.132Z,49.90
2018-12-04T06:07:38.441Z,49.60
2018-12-04T06:10:04.655Z,49.60
2018-12-04T06:12:30.802Z,49.70
2018-12-04T06:14:57.123Z,49.40
2018-12-04T06:17:23.348Z,49.60
2018-12-04T06:19:49.577Z,49.60
2018-12-04T06:22:15.808Z,49.50
2018-12-04T06:24:42.032Z,49.50
2018-12-04T06:27:08.210Z,49.40
2018-12-04T06:29:35.142Z,49.20
2018-12-04T06:32:01.337Z,49.10
2018-12-04T06:34:27.485Z,48.90
2018-12-04T06:36:53.788Z,49.20
2018-12-04T06:39:20.011Z,49.20
2018-12-04T06:41:46.251Z,49.00
2018-12-04T06:44:12.473Z,49.20
2018-12-04T06:46:38.696Z,49.10
2018-12-04T06:49:04.878Z,49.00
2018-12-04T06:51:31.152Z,49.10
2018-12-04T06:53:57.384Z,49.10
2018-12-04T06:56:23.607Z,49.10
2018-12-04T06:58:49.844Z,48.80
2018-12-04T07:01:16.067Z,48.80
2018-12-04T07:03:42.299Z,49.00
2018-12-04T07:06:08.520Z,48.70
2018-12-04T07:08:34.752Z,48.80
2018-12-04T07:11:00.975Z,48.90
2018-12-04T07:13:27.217Z,48.50
2018-12-04T07:15:53.379Z,48.50
2018-12-04T07:18:19.668Z,48.60
2018-12-04T07:20:45.892Z,48.40
2018-12-04T07:23:12.034Z,48.40
2018-12-04T07:25:38.352Z,48.70
2018-12-04T07:28:04.580Z,48.80
2018-12-04T07:30:30.808Z,48.70
2018-12-04T07:32:57.031Z,48.60
2018-12-04T07:35:23.260Z,48.60
2018-12-04T07:37:49.491Z,48.50
2018-12-04T07:40:15.732Z,48.40
2018-12-04T07:42:41.956Z,48.40
2018-12-04T07:45:08.109Z,48.20
2018-12-04T07:47:34.399Z,48.20
2018-12-04T07:50:00.642Z,48.40
2018-12-04T07:52:26.788Z,48.30
2018-12-04T07:54:52.931Z,48.20
2018-12-04T07:57:19.075Z,48.30
2018-12-04T07:59:45.993Z,48.20
2018-12-04T08:02:12.143Z,48.10
2018-12-04T08:04:39.510Z,48.00
2018-12-04T08:07:05.670Z,48.00
2018-12-04T08:09:31.888Z,48.00
2018-12-04T08:11:58.123Z,48.20
2018-12-04T08:14:24.350Z,48.10
2018-12-04T08:16:50.578Z,48.10
2018-12-04T08:19:16.812Z,48.10
2018-12-04T08:21:42.980Z,48.00
2018-12-04T08:24:09.269Z,48.00
2018-12-04T08:26:35.416Z,47.80
2018-12-04T08:29:01.729Z,47.80
2018-12-04T08:31:27.957Z,47.60
2018-12-04T08:33:54.167Z,48.00
2018-12-04T08:36:20.406Z,48.00
2018-12-04T08:38:46.636Z,47.90
2018-12-04T08:41:12.851Z,48.00
2018-12-04T08:43:39.099Z,47.90
2018-12-04T08:46:05.325Z,48.30
2018-12-04T08:48:31.541Z,47.70
2018-12-04T08:50:57.768Z,47.70
2018-12-04T08:53:23.999Z,47.70
2018-12-04T08:55:50.224Z,47.60
2018-12-04T08:58:16.368Z,48.00
2018-12-04T09:00:42.684Z,47.70
2018-12-04T09:03:08.917Z,47.90
2018-12-04T09:05:35.139Z,47.70
2018-12-04T09:08:01.368Z,47.90
2018-12-04T09:10:27.595Z,47.50
2018-12-04T09:12:53.820Z,47.70
2018-12-04T09:15:20.060Z,47.40
2018-12-04T09:17:46.220Z,47.30
2018-12-04T09:20:12.522Z,47.60
2018-12-04T09:22:38.737Z,47.70
2018-12-04T09:25:04.996Z,47.90
2018-12-04T09:27:31.218Z,48.10
2018-12-04T09:29:57.456Z,47.80
2018-12-04T09:32:23.649Z,47.80
2018-12-04T09:34:49.879Z,48.00
2018-12-04T09:37:16.104Z,47.70
2018-12-04T09:39:42.336Z,48.00
2018-12-04T09:42:08.565Z,47.70
2018-12-04T09:44:34.798Z,47.70
2018-12-04T09:47:01.017Z,47.80
2018-12-04T09:49:27.248Z,47.90
2018-12-04T09:51:53.481Z,47.70
2018-12-04T09:54:19.705Z,47.60
2018-12-04T09:56:45.941Z,47.40
2018-12-04T09:59:12.110Z,47.60
2018-12-04T10:01:39.208Z,47.20
2018-12-04T10:04:05.365Z,47.10
2018-12-04T10:06:31.676Z,47.50
2018-12-04T10:08:57.893Z,47.40
2018-12-04T10:11:24.117Z,47.90
2018-12-04T10:13:50.268Z,47.90
2018-12-04T10:16:16.586Z,47.60
2018-12-04T10:18:47.656Z,47.50
2018-12-04T10:21:09.687Z,47.80
2018-12-04T10:23:35.881Z,47.60
2018-12-04T10:26:02.034Z,48.00
2018-12-04T10:28:28.331Z,47.40
2018-12-04T10:30:54.558Z,47.80
2018-12-04T10:33:20.798Z,47.30
2018-12-04T10:35:47.023Z,47.50
2018-12-04T10:38:13.168Z,47.60
2018-12-04T10:40:39.311Z,47.30
2018-12-04T10:43:07.136Z,47.10
2018-12-04T10:45:33.364Z,47.10
2018-12-04T10:47:59.609Z,47.40
2018-12-04T10:50:25.816Z,47.50
2018-12-04T10:52:51.955Z,47.50
2018-12-04T10:55:18.279Z,47.40
2018-12-04T10:57:44.505Z,48.00
2018-12-04T11:00:10.654Z,47.30
2018-12-04T11:02:36.956Z,47.20
2018-12-04T11:05:03.194Z,47.10
2018-12-04T11:07:29.420Z,47.00
2018-12-04T11:09:55.651Z,47.10
2018-12-04T11:12:21.871Z,46.90
2018-12-04T11:14:48.106Z,47.10
2018-12-04T11:17:14.326Z,47.10
2018-12-04T11:19:40.472Z,47.20
2018-12-04T11:22:06.799Z,47.10
2018-12-04T11:24:32.957Z,47.10
2018-12-04T11:26:59.243Z,47.00
2018-12-04T11:29:25.472Z,46.90
2018-12-04T11:31:51.652Z,47.00
2018-12-04T11:34:17.923Z,47.10
2018-12-04T11:36:44.167Z,46.80
2018-12-04T11:39:10.384Z,46.90
2018-12-04T11:41:36.608Z,46.50
2018-12-04T11:44:02.847Z,46.80
2018-12-04T11:46:29.068Z,46.50
2018-12-04T11:48:55.298Z,47.00
2018-12-04T11:51:21.533Z,46.80
2018-12-04T11:53:47.685Z,46.80
2018-12-04T11:56:13.836Z,46.70
2018-12-04T11:58:40.004Z,46.80
2018-12-04T12:01:06.238Z,47.00
2018-12-04T12:03:32.462Z,46.60
2018-12-04T12:05:58.693Z,46.80
2018-12-04T12:08:24.920Z,46.90
2018-12-04T12:10:51.068Z,46.60
2018-12-04T12:13:17.212Z,46.30
2018-12-04T12:15:43.408Z,46.80
2018-12-04T12:18:09.632Z,46.80
2018-12-04T12:20:35.856Z,46.50
2018-12-04T12:23:02.090Z,46.70
2018-12-04T12:25:28.241Z,46.80
2018-12-04T12:27:54.542Z,46.70
2018-12-04T12:30:20.764Z,47.30
2018-12-04T12:32:46.993Z,46.50
2018-12-04T12:35:13.233Z,46.30
2018-12-04T12:37:39.455Z,46.40
2018-12-04T12:40:05.688Z,46.00
2018-12-04T12:42:31.908Z,45.90
2018-12-04T12:44:58.144Z,46.60
2018-12-04T12:47:24.376Z,46.10
2018-12-04T12:49:50.528Z,46.30
2018-12-04T12:52:16.828Z,46.90
2018-12-04T12:54:43.051Z,46.70
2018-12-04T12:57:09.287Z,46.60
2018-12-04T12:59:35.444Z,46.70
2018-12-04T13:02:01.731Z,46.70
2018-12-04T13:04:27.974Z,46.70
2018-12-04T13:06:54.202Z,46.50
2018-12-04T13:09:20.424Z,46.60
2018-12-04T13:11:46.643Z,46.40
2018-12-04T13:14:12.873Z,46.40
2018-12-04T13:16:39.107Z,46.30
2018-12-04T13:19:05.931Z,46.00
2018-12-04T13:21:31.567Z,46.10
2018-12-04T13:23:57.716Z,46.10
2018-12-04T13:26:24.012Z,46.20
2018-12-04T13:28:50.259Z,46.40
2018-12-04T13:31:16.471Z,46.30
2018-12-04T13:33:42.706Z,46.30
2018-12-04T13:36:08.870Z,46.30
2018-12-04T13:38:35.168Z,46.30
2018-12-04T13:41:01.396Z,46.40
2018-12-04T13:43:27.620Z,46.40
2018-12-04T13:45:53.844Z,46.40
2018-12-04T14:13:44.467Z,46.20
2018-12-04T15:16:55.001Z,46.20
2018-12-04T15:19:18.674Z,46.30
2018-12-04T15:21:44.983Z,46.40
2018-12-04T15:24:11.600Z,46.40
2018-12-04T15:26:37.985Z,46.40
2018-12-04T15:29:04.226Z,46.30
2018-12-04T15:31:31.948Z,46.10
2018-12-04T15:33:58.256Z,46.10
2018-12-04T15:36:24.563Z,46.10
2018-12-04T15:38:51.433Z,46.10
2018-12-04T15:41:17.837Z,46.00
2018-12-04T15:43:44.254Z,46.00
2018-12-04T15:46:10.489Z,46.00
2018-12-04T15:48:36.723Z,46.00
2018-12-04T15:51:03.189Z,46.00
2018-12-04T15:53:29.614Z,46.00
2018-12-04T15:55:56.028Z,45.90
2018-12-04T15:58:22.412Z,45.90
2018-12-04T16:00:48.600Z,45.90
2018-12-04T16:03:14.780Z,45.90
2018-12-04T16:05:41.100Z,45.80
2018-12-04T16:08:07.543Z,45.90
2018-12-04T16:10:33.794Z,45.80
2018-12-04T16:13:00.228Z,45.80
2018-12-04T16:15:26.677Z,45.80
2018-12-04T16:17:52.861Z,45.90
2018-12-04T16:20:19.111Z,45.80
2018-12-04T16:22:45.361Z,45.80
2018-12-04T16:25:12.004Z,45.70
2018-12-04T16:27:38.214Z,45.80
2018-12-04T16:30:04.695Z,45.80
2018-12-04T16:32:31.111Z,45.80
2018-12-04T16:34:57.499Z,45.80
2018-12-04T16:37:23.767Z,45.80
2018-12-04T16:39:50.152Z,45.70
2018-12-04T16:42:17.880Z,45.70
2018-12-04T16:44:44.283Z,45.80
2018-12-04T16:47:10.684Z,45.80
2018-12-04T16:49:38.384Z,45.80
2018-12-04T16:52:04.797Z,45.70
2018-12-04T16:54:30.993Z,45.70
2018-12-04T16:56:57.277Z,45.70
2018-12-04T16:59:23.456Z,45.70
2018-12-04T17:01:49.707Z,45.60
2018-12-04T17:04:16.147Z,45.70
2018-12-04T17:06:42.597Z,45.60
2018-12-04T17:09:08.801Z,45.70
2018-12-04T17:11:35.011Z,45.60
2018-12-04T17:14:01.241Z,45.60
2018-12-04T17:16:27.447Z,45.70
2018-12-04T17:18:53.698Z,45.60
2018-12-04T17:21:19.964Z,45.60
2018-12-04T17:23:46.398Z,45.60
2018-12-04T17:26:12.798Z,45.50
2018-12-04T17:28:39.082Z,45.60
2018-12-04T17:31:05.320Z,45.50
2018-12-04T17:33:31.738Z,45.50
2018-12-04T17:35:58.112Z,45.40
2018-12-04T17:38:24.370Z,45.40
2018-12-04T17:40:50.775Z,45.40
2018-12-04T17:43:17.012Z,45.50
2018-12-04T17:45:43.231Z,45.50
2018-12-04T17:48:09.663Z,45.30
2018-12-04T17:50:37.822Z,45.40
2018-12-04T17:53:04.176Z,45.30
2018-12-04T17:55:30.420Z,45.40
2018-12-04T17:57:56.619Z,45.30
2018-12-04T18:00:22.889Z,45.30
2018-12-04T18:02:49.319Z,45.30
2018-12-04T18:05:15.745Z,45.30
2018-12-04T18:07:42.168Z,45.20
2018-12-04T18:10:08.830Z,45.20
2018-12-04T18:12:35.263Z,45.30
2018-12-04T18:15:01.661Z,45.20
2018-12-04T18:17:27.869Z,45.10
2018-12-04T18:19:54.159Z,45.10
2018-12-04T18:22:20.534Z,45.20
2018-12-04T18:24:46.792Z,45.10
2018-12-04T18:27:13.218Z,45.20
2018-12-04T18:29:39.732Z,45.10
2018-12-04T18:32:06.083Z,45.10
2018-12-04T18:34:34.186Z,44.90
2018-12-04T18:37:00.590Z,44.90
2018-12-04T18:39:26.813Z,45.00
2018-12-04T18:41:53.061Z,45.00
2018-12-04T18:44:19.471Z,45.10
2018-12-04T18:46:45.695Z,45.00
2018-12-04T18:49:12.161Z,44.90
2018-12-04T18:51:38.626Z,45.00
2018-12-04T18:54:05.058Z,45.00
2018-12-04T18:56:31.441Z,44.80
2018-12-04T18:58:57.683Z,44.90
2018-12-04T19:01:24.088Z,44.80
2018-12-04T19:03:50.365Z,44.80
2018-12-04T19:06:16.756Z,44.80
2018-12-04T19:08:43.888Z,44.80
2018-12-04T19:11:10.477Z,44.70
2018-12-04T19:13:36.702Z,44.70
2018-12-04T19:16:03.118Z,44.70
2018-12-04T19:18:29.344Z,44.70
2018-12-04T19:20:55.800Z,44.80
2018-12-04T19:23:22.220Z,44.70
2018-12-04T19:25:48.665Z,44.70
2018-12-04T19:28:15.075Z,44.60
2018-12-04T19:30:41.282Z,44.60
2018-12-04T19:33:07.757Z,44.60
2018-12-04T19:35:34.163Z,44.60
2018-12-04T19:38:00.424Z,44.60
2018-12-04T19:40:27.058Z,44.50
2018-12-04T19:42:53.460Z,44.50
2018-12-04T19:45:19.721Z,44.50
2018-12-04T19:47:46.140Z,44.50
2018-12-04T19:50:13.029Z,44.60
2018-12-04T19:52:39.634Z,44.40
2018-12-04T19:55:06.053Z,44.40
2018-12-04T19:57:32.476Z,44.40
2018-12-04T19:59:59.147Z,44.40
2018-12-04T20:02:25.524Z,44.40
2018-12-04T20:04:52.005Z,44.30
2018-12-04T20:07:18.436Z,44.30
2018-12-04T20:09:44.672Z,44.40
2018-12-04T20:12:11.314Z,44.30
2018-12-04T20:14:37.734Z,44.20
2018-12-04T20:17:04.375Z,44.20
2018-12-04T20:19:30.829Z,44.20
2018-12-04T20:21:57.093Z,44.20
2018-12-04T20:24:23.420Z,44.20
2018-12-04T20:26:49.696Z,44.10
2018-12-04T20:29:16.120Z,44.10
2018-12-04T20:31:42.537Z,44.10
2018-12-04T20:34:08.765Z,44.10
2018-12-04T20:36:34.990Z,44.00
2018-12-04T20:39:01.412Z,44.00
2018-12-04T20:41:28.125Z,44.00
2018-12-04T20:43:54.482Z,44.00
2018-12-04T20:46:21.195Z,44.00
2018-12-04T20:48:47.798Z,44.60
2018-12-04T20:51:14.675Z,43.90
2018-12-04T20:53:41.033Z,43.90
2018-12-04T20:56:07.746Z,43.90
2018-12-04T20:58:34.566Z,43.90
2018-12-04T21:01:01.432Z,43.80
2018-12-04T21:03:27.799Z,43.80
2018-12-04T21:05:54.502Z,43.80
2018-12-04T21:08:20.851Z,43.70
2018-12-04T21:10:47.335Z,43.70
2018-12-04T21:13:14.599Z,43.70
2018-12-04T21:15:40.048Z,43.70
2018-12-04T21:18:06.848Z,43.70
2018-12-04T21:20:33.227Z,43.70
2018-12-04T21:23:00.924Z,43.60
2018-12-04T21:25:27.343Z,43.60
2018-12-04T21:27:53.632Z,43.60
2018-12-04T21:30:20.015Z,43.60
2018-12-04T21:32:46.423Z,43.60
2018-12-04T21:35:13.109Z,43.50
2018-12-04T21:37:39.534Z,43.50
2018-12-04T21:40:05.946Z,43.50
2018-12-04T21:42:32.398Z,43.50
2018-12-04T21:44:58.794Z,43.40
2018-12-04T21:47:25.276Z,43.40
2018-12-04T21:49:51.669Z,44.10
2018-12-04T21:52:17.927Z,43.40
2018-12-04T21:54:44.329Z,43.40
2018-12-04T21:57:12.226Z,43.30
2018-12-04T21:59:38.629Z,43.30
2018-12-04T22:02:04.866Z,43.30
2018-12-04T22:04:31.072Z,43.30
2018-12-04T22:06:57.324Z,43.30
2018-12-04T22:09:23.584Z,43.80
2018-12-04T22:11:49.968Z,43.20
2018-12-04T22:14:16.196Z,43.20
2018-12-04T22:16:42.460Z,43.20
2018-12-04T22:19:08.896Z,43.20
2018-12-04T22:21:35.316Z,43.10
2018-12-04T22:24:01.744Z,43.10
2018-12-04T22:26:27.967Z,43.10
2018-12-04T22:28:54.629Z,43.10
2018-12-04T22:31:21.264Z,43.10
2018-12-04T22:33:48.289Z,43.10
2018-12-04T22:36:14.744Z,43.10
2018-12-04T22:38:41.202Z,43.00
2018-12-04T22:41:07.681Z,43.00
2018-12-04T22:43:34.876Z,43.00
2018-12-04T22:46:01.275Z,43.00
2018-12-04T22:48:27.482Z,43.00
2018-12-04T22:50:55.390Z,43.00
2018-12-04T22:53:21.857Z,42.90
2018-12-04T22:55:48.208Z,42.90
2018-12-04T22:58:14.482Z,42.90
2018-12-04T23:00:41.134Z,42.90
2018-12-04T23:03:07.337Z,42.90
2018-12-04T23:05:33.884Z,42.90
2018-12-04T23:08:00.436Z,42.80
2018-12-04T23:10:26.825Z,42.80
2018-12-04T23:12:53.330Z,42.80
2018-12-04T23:15:19.717Z,42.70
2018-12-04T23:17:46.121Z,42.80
2018-12-04T23:20:12.390Z,42.80
2018-12-04T23:22:38.808Z,42.70
2018-12-04T23:25:05.215Z,42.70
2018-12-04T23:27:31.457Z,42.70
2018-12-04T23:29:57.987Z,42.70
2018-12-04T23:32:24.332Z,42.70
2018-12-04T23:34:50.743Z,42.70
2018-12-04T23:37:16.974Z,42.60
2018-12-04T23:39:43.199Z,42.60
2018-12-04T23:42:11.100Z,42.60
2018-12-04T23:44:37.517Z,42.60
2018-12-04T23:47:03.722Z,42.60
2018-12-04T23:49:30.028Z,42.60
2018-12-04T23:51:56.208Z,42.60
2018-12-04T23:54:22.636Z,42.50
2018-12-04T23:56:48.872Z,42.50
2018-12-04T23:59:15.310Z,42.50
